Time;durP1;ratioP1;P1;durP2;ratioP2;P2;SDS_P1;SDS_P2;PMS_P1;PMS_P2;Temp;Humidity;BMP_temperature;BMP_pressure;BME280_temperature;BME280_humidity;BME280_pressure;Samples;Min_cycle;Max_cycle;Signal;HPM_P1;HPM_P2
2022/09/25 00:01:39;;;;;;;23.33;15.20;;;;;;;-140.66;100.00;55571.53;5056951;28;20021;-70
2022/09/25 00:04:25;;;;;;;25.40;15.50;;;;;;;-140.66;100.00;55571.53;5058087;28;20025;-71
2022/09/25 00:07:11;;;;;;;23.85;14.90;;;;;;;-140.66;100.00;55571.53;5043265;28;20102;-72
2022/09/25 00:09:56;;;;;;;23.17;14.18;;;;;;;-140.66;100.00;55571.53;5057032;28;20025;-72
2022/09/25 00:12:42;;;;;;;22.27;13.57;;;;;;;-140.66;100.00;55571.53;5057432;28;20036;-71
2022/09/25 00:15:28;;;;;;;23.45;15.15;;;;;;;-140.66;100.00;55571.53;5056771;28;20423;-71
2022/09/25 00:18:14;;;;;;;24.35;15.30;;;;;;;-140.66;100.00;55571.53;5057799;28;20108;-71
2022/09/25 00:21:01;;;;;;;24.73;14.77;;;;;;;-140.66;100.00;55571.53;5057141;28;20029;-71
2022/09/25 00:23:47;;;;;;;21.08;15.63;;;;;;;-140.66;100.00;55571.53;5057134;28;20056;-71
2022/09/25 00:26:36;;;;;;;24.60;15.63;;;;;;;-140.66;100.00;55571.53;5057589;28;20029;-70
2022/09/25 00:29:22;;;;;;;24.55;15.00;;;;;;;-140.66;100.00;55571.53;5055885;28;20059;-71
2022/09/25 00:32:10;;;;;;;21.17;15.05;;;;;;;-140.66;100.00;55571.53;5056569;28;20040;-69
2022/09/25 00:34:56;;;;;;;22.27;16.55;;;;;;;-140.66;100.00;55571.53;5056207;28;20087;-71
2022/09/25 00:37:41;;;;;;;22.00;16.13;;;;;;;-140.66;100.00;55571.53;5056600;28;20057;-71
2022/09/25 00:40:27;;;;;;;23.58;16.60;;;;;;;-140.66;100.00;55571.53;5042205;28;20029;-71
2022/09/25 00:43:14;;;;;;;25.50;15.85;;;;;;;-140.66;100.00;55571.53;5056285;28;20094;-70
2022/09/25 00:46:04;;;;;;;23.17;16.02;;;;;;;-140.66;100.00;55571.53;5056912;28;20071;-71
2022/09/25 00:48:58;;;;;;;22.92;16.60;;;;;;;-140.66;100.00;55571.53;5042085;28;20052;-72
2022/09/25 00:51:52;;;;;;;24.60;16.40;;;;;;;-140.66;100.00;55571.53;5055838;28;20035;-70
2022/09/25 00:54:52;;;;;;;23.25;15.63;;;;;;;-140.66;100.00;55571.53;5055934;28;20028;-71
2022/09/25 00:57:42;;;;;;;20.40;15.00;;;;;;;-140.66;100.00;55571.53;5056416;28;20472;-70
2022/09/25 01:00:29;;;;;;;17.33;12.90;;;;;;;-140.66;100.00;55571.53;5056194;28;20039;-71
2022/09/25 01:03:16;;;;;;;14.43;11.23;;;;;;;-140.66;100.00;55571.53;5042475;28;20025;-70
2022/09/25 01:06:02;;;;;;;12.85;9.98;;;;;;;-140.66;100.00;55571.53;5055876;28;20035;-70
2022/09/25 01:08:48;;;;;;;9.95;7.53;;;;;;;-140.66;100.00;55571.53;5056594;28;20075;-70
2022/09/25 01:11:34;;;;;;;9.45;6.80;;;;;;;-140.66;100.00;55571.53;5056724;28;20025;-71
2022/09/25 01:14:21;;;;;;;9.10;6.53;;;;;;;-140.66;100.00;55571.53;5056327;28;20035;-72
2022/09/25 01:17:24;;;;;;;10.88;7.70;;;;;;;-140.66;100.00;55571.53;5055991;28;20457;-71
2022/09/25 01:20:41;;;;;;;9.80;6.78;;;;;;;-140.66;100.00;55571.53;5055703;28;20119;-70
2022/09/25 01:23:30;;;;;;;13.70;8.10;;;;;;;-140.66;100.00;55571.53;5055639;28;20032;-71
2022/09/25 01:26:38;;;;;;;13.80;9.15;;;;;;;-140.66;100.00;55571.53;5055756;28;20446;-72
2022/09/25 01:29:39;;;;;;;14.00;8.82;;;;;;;-140.66;100.00;55571.53;5055330;28;20078;-71
2022/09/25 01:33:11;;;;;;;12.68;9.18;;;;;;;-140.66;100.00;55571.53;5055657;28;20017;-70
2022/09/25 01:36:00;;;;;;;14.00;9.20;;;;;;;-140.66;100.00;55571.53;5050003;28;20045;-71
2022/09/25 01:38:54;;;;;;;11.85;9.45;;;;;;;-140.66;100.00;55571.53;5055773;28;20366;-71
2022/09/25 01:41:49;;;;;;;13.65;9.63;;;;;;;-140.66;100.00;55571.53;5041254;28;20370;-71
2022/09/25 01:44:42;;;;;;;16.00;11.00;;;;;;;-140.66;100.00;55571.53;5055087;28;20025;-71
2022/09/25 01:47:32;;;;;;;13.57;10.25;;;;;;;-140.66;100.00;55571.53;5055040;28;20032;-70
2022/09/25 01:50:27;;;;;;;14.63;10.60;;;;;;;-140.66;100.00;55571.53;5056217;28;20040;-71
2022/09/25 01:53:19;;;;;;;15.80;11.15;;;;;;;-140.66;100.00;55571.53;5056388;28;20120;-71
2022/09/25 01:56:12;;;;;;;16.33;11.05;;;;;;;-140.66;100.00;55571.53;5055935;28;20077;-71
2022/09/25 01:59:11;;;;;;;13.90;10.50;;;;;;;-140.66;100.00;55571.53;5054203;28;20040;-70
2022/09/25 02:02:02;;;;;;;15.98;10.73;;;;;;;-140.66;100.00;55571.53;5055051;28;20025;-70
2022/09/25 02:04:58;;;;;;;15.55;11.23;;;;;;;-140.66;100.00;55571.53;5054189;28;20033;-71
2022/09/25 02:07:53;;;;;;;15.95;11.80;;;;;;;-140.66;100.00;55571.53;5041652;28;20021;-71
2022/09/25 02:10:45;;;;;;;14.90;10.80;;;;;;;-140.66;100.00;55571.53;5057695;28;20125;-70
2022/09/25 02:13:54;;;;;;;14.57;10.40;;;;;;;-140.66;100.00;55571.53;5054589;28;20043;-71
2022/09/25 02:16:42;;;;;;;13.48;10.20;;;;;;;-140.66;100.00;55571.53;5054834;28;20040;-71
2022/09/25 02:22:34;;;;;;;13.57;10.77;;;;;;;-140.66;100.00;55571.53;5053754;28;20063;-71
2022/09/25 02:25:43;;;;;;;17.45;10.48;;;;;;;-140.66;100.00;55571.53;5054052;28;20086;-71
2022/09/25 02:28:29;;;;;;;11.73;9.30;;;;;;;-140.66;100.00;55571.53;5055824;28;20049;-71
2022/09/25 02:31:16;;;;;;;11.98;8.70;;;;;;;-140.66;100.00;55571.53;5053665;28;20362;-71
2022/09/25 02:34:02;;;;;;;9.57;8.20;;;;;;;-140.66;100.00;55571.53;5055279;28;20091;-71
2022/09/25 02:36:48;;;;;;;10.32;7.70;;;;;;;-140.66;100.00;55571.53;5053883;28;20099;-70
2022/09/25 02:39:34;;;;;;;11.57;8.13;;;;;;;-140.66;100.00;55571.53;5054004;28;20035;-70
2022/09/25 02:42:44;;;;;;;10.73;7.85;;;;;;;-140.66;100.00;55571.53;5053563;28;20024;-69
2022/09/25 02:45:44;;;;;;;11.10;9.27;;;;;;;-140.66;100.00;55571.53;5040035;28;20021;-70
2022/09/25 02:49:01;;;;;;;15.20;10.07;;;;;;;-140.66;100.00;55571.53;5054203;28;20048;-70
2022/09/25 02:52:03;;;;;;;13.02;9.80;;;;;;;-140.66;100.00;55571.53;4996019;28;20423;-70
2022/09/25 02:55:01;;;;;;;12.82;9.93;;;;;;;-140.66;100.00;55571.53;5053851;28;20025;-70
2022/09/25 02:57:56;;;;;;;13.95;9.60;;;;;;;-140.66;100.00;55571.53;5053498;28;20017;-69
2022/09/25 03:00:46;;;;;;;14.85;10.20;;;;;;;-140.66;100.00;55571.53;5053795;28;20361;-70
2022/09/25 03:03:33;;;;;;;16.10;10.75;;;;;;;-140.66;100.00;55571.53;5039668;28;20106;-70
2022/09/25 03:06:20;;;;;;;16.00;10.80;;;;;;;-140.66;100.00;55571.53;5054265;28;20060;-71
2022/09/25 03:09:10;;;;;;;14.10;10.82;;;;;;;-140.66;100.00;55571.53;5053992;28;20017;-70
2022/09/25 03:11:56;;;;;;;15.00;11.13;;;;;;;-140.66;100.00;55571.53;5054205;28;20468;-70
2022/09/25 03:14:42;;;;;;;16.95;11.60;;;;;;;-140.66;100.00;55571.53;5053902;28;20033;-70
2022/09/25 03:17:28;;;;;;;17.15;11.35;;;;;;;-140.66;100.00;55571.53;5053996;28;20369;-71
2022/09/25 03:20:13;;;;;;;16.80;11.43;;;;;;;-140.66;100.00;55571.53;5053665;28;20040;-70
2022/09/25 03:22:59;;;;;;;14.45;10.63;;;;;;;-140.66;100.00;55571.53;5053597;28;20032;-70
2022/09/25 03:25:46;;;;;;;14.13;10.50;;;;;;;-140.66;100.00;55571.53;5053738;28;20107;-70
2022/09/25 03:28:33;;;;;;;13.95;10.05;;;;;;;-140.66;100.00;55571.53;5053560;28;20029;-71
2022/09/25 03:31:19;;;;;;;12.43;9.80;;;;;;;-140.66;100.00;55571.53;5054296;28;20103;-70
2022/09/25 03:34:05;;;;;;;13.98;8.93;;;;;;;-140.66;100.00;55571.53;5055028;28;20111;-70
2022/09/25 03:36:50;;;;;;;11.50;8.52;;;;;;;-140.66;100.00;55571.53;5059460;28;20040;-70
2022/09/25 03:39:36;;;;;;;15.05;7.93;;;;;;;-140.66;100.00;55571.53;5057393;28;20029;-70
2022/09/25 03:42:26;;;;;;;9.75;7.68;;;;;;;-140.66;100.00;55571.53;5057902;28;20035;-68
2022/09/25 03:45:12;;;;;;;8.93;7.22;;;;;;;-140.66;100.00;55571.53;5057085;28;20082;-70
2022/09/25 03:47:57;;;;;;;9.13;7.28;;;;;;;-140.66;100.00;55571.53;5043408;28;20120;-70
2022/09/25 03:50:45;;;;;;;10.10;7.55;;;;;;;-140.66;100.00;55571.53;5057897;28;20087;-70
2022/09/25 03:53:32;;;;;;;10.38;7.65;;;;;;;-140.66;100.00;55571.53;5043343;28;20033;-71
2022/09/25 03:56:21;;;;;;;12.23;7.88;;;;;;;-140.66;100.00;55571.53;5057554;28;20535;-71
2022/09/25 03:59:07;;;;;;;9.38;7.43;;;;;;;-140.66;100.00;55571.53;5056944;28;20509;-71
2022/09/25 04:01:53;;;;;;;11.43;8.18;;;;;;;-140.66;100.00;55571.53;5057451;28;20118;-70
2022/09/25 04:04:38;;;;;;;10.85;8.48;;;;;;;-140.66;100.00;55571.53;5057431;28;20025;-68
2022/09/25 04:07:24;;;;;;;11.32;8.07;;;;;;;-140.66;100.00;55571.53;5057085;28;20090;-71
2022/09/25 04:10:10;;;;;;;10.50;8.13;;;;;;;-140.66;100.00;55571.53;5057254;28;20040;-69
2022/09/25 04:12:56;;;;;;;13.40;8.65;;;;;;;-140.66;100.00;55571.53;5058273;28;20021;-71
2022/09/25 04:15:42;;;;;;;9.63;8.13;;;;;;;-140.66;100.00;55571.53;5056651;28;20112;-70
2022/09/25 04:18:30;;;;;;;11.90;7.93;;;;;;;-140.66;100.00;55571.53;5056618;28;20060;-71
2022/09/25 04:21:16;;;;;;;12.73;8.90;;;;;;;-140.66;100.00;55571.53;5057063;28;20025;-71
2022/09/25 04:27:07;;;;;;;11.85;8.35;;;;;;;-140.66;100.00;55571.53;5057188;28;20021;-70
2022/09/25 04:29:53;;;;;;;12.35;8.55;;;;;;;-140.66;100.00;55571.53;5056583;28;20021;-70
2022/09/25 04:35:43;;;;;;;12.88;8.60;;;;;;;-140.66;100.00;55571.53;5056415;28;20415;-69
2022/09/25 04:38:31;;;;;;;12.25;8.95;;;;;;;-140.66;100.00;55571.53;5057936;28;20039;-70
2022/09/25 04:41:18;;;;;;;12.65;9.02;;;;;;;-140.66;100.00;55571.53;5056473;28;20028;-70
2022/09/25 04:44:04;;;;;;;12.05;9.40;;;;;;;-140.66;100.00;55571.53;5042238;28;20512;-70
2022/09/25 04:46:50;;;;;;;12.85;9.32;;;;;;;-140.66;100.00;55571.53;5055679;28;20379;-70
2022/09/25 04:49:37;;;;;;;12.93;9.80;;;;;;;-140.66;100.00;55571.53;5056633;28;20032;-70
2022/09/25 04:52:23;;;;;;;13.90;9.40;;;;;;;-140.66;100.00;55571.53;5056212;28;20047;-70
2022/09/25 04:55:09;;;;;;;15.10;9.45;;;;;;;-140.66;100.00;55571.53;5041592;28;20045;-70
2022/09/25 04:57:58;;;;;;;12.48;9.95;;;;;;;-140.66;100.00;55571.53;5056905;28;20449;-70
2022/09/25 05:00:43;;;;;;;12.63;9.45;;;;;;;-140.66;100.00;55571.53;5055726;28;20029;-71
2022/09/25 05:03:29;;;;;;;13.40;9.65;;;;;;;-140.66;100.00;55571.53;5056509;28;20040;-71
2022/09/25 05:06:15;;;;;;;15.80;10.38;;;;;;;-140.66;100.00;55571.53;5042134;28;20107;-70
2022/09/25 05:09:01;;;;;;;14.68;10.07;;;;;;;-140.66;100.00;55571.53;5055927;28;20021;-70
2022/09/25 05:11:47;;;;;;;16.67;11.32;;;;;;;-140.66;100.00;55571.53;5056241;28;20032;-69
2022/09/25 05:14:33;;;;;;;13.05;10.38;;;;;;;-140.66;100.00;55571.53;5056881;28;20020;-71
2022/09/25 05:17:19;;;;;;;13.68;10.60;;;;;;;-140.66;100.00;55571.53;5056072;28;20141;-71
2022/09/25 05:20:05;;;;;;;13.27;10.13;;;;;;;-140.66;100.00;55571.53;5055607;28;20025;-70
2022/09/25 05:22:57;;;;;;;20.08;10.80;;;;;;;-140.66;100.00;55571.53;5056820;28;20107;-70
2022/09/25 05:25:49;;;;;;;21.10;11.25;;;;;;;-140.66;100.00;55571.53;5041938;28;20124;-71
2022/09/25 05:28:35;;;;;;;15.93;10.77;;;;;;;-140.66;100.00;55571.53;5055324;28;20469;-71
2022/09/25 05:31:21;;;;;;;17.60;11.88;;;;;;;-140.66;100.00;55571.53;5055427;28;20037;-70
2022/09/25 05:34:08;;;;;;;16.48;11.38;;;;;;;-140.66;100.00;55571.53;5055509;28;20365;-70
2022/09/25 05:36:54;;;;;;;16.67;11.55;;;;;;;-140.66;100.00;55571.53;5054674;28;20106;-70
2022/09/25 05:39:39;;;;;;;17.42;11.68;;;;;;;-140.66;100.00;55571.53;5055427;28;20083;-71
2022/09/25 05:42:25;;;;;;;18.60;12.18;;;;;;;-140.66;100.00;55571.53;5055517;28;20039;-70
2022/09/25 05:45:11;;;;;;;18.63;11.88;;;;;;;-140.66;100.00;55571.53;5055349;28;20112;-71
2022/09/25 05:48:06;;;;;;;17.05;11.15;;;;;;;-140.66;100.00;55571.53;5055791;28;20078;-70
2022/09/25 05:50:53;;;;;;;17.25;11.90;;;;;;;-140.66;100.00;55571.53;5040517;28;20094;-70
2022/09/25 05:53:39;;;;;;;12.93;9.27;;;;;;;-140.66;100.00;55571.53;5054957;28;20039;-71
2022/09/25 05:56:26;;;;;;;15.00;9.13;;;;;;;-140.66;100.00;55571.53;5040787;28;20063;-70
2022/09/25 05:59:14;;;;;;;13.55;9.20;;;;;;;-140.66;100.00;55571.53;5055866;28;20025;-72
2022/09/25 06:02:00;;;;;;;11.15;7.65;;;;;;;-140.66;100.00;55571.53;5055129;28;20086;-71
2022/09/25 06:04:48;;;;;;;11.20;7.47;;;;;;;-140.66;100.00;55571.53;5055114;28;20089;-70
2022/09/25 06:07:35;;;;;;;12.45;7.30;;;;;;;-140.66;100.00;55571.53;5055365;28;20112;-72
2022/09/25 06:10:21;;;;;;;14.32;7.57;;;;;;;-140.66;100.00;55571.53;5055602;28;20048;-71
2022/09/25 06:13:07;;;;;;;13.40;7.93;;;;;;;-140.66;100.00;55571.53;5054055;28;20036;-71
2022/09/25 06:15:53;;;;;;;11.02;6.93;;;;;;;-140.66;100.00;55571.53;5039684;28;20429;-70
2022/09/25 06:18:39;;;;;;;8.70;6.22;;;;;;;-140.66;100.00;55571.53;5054685;28;20028;-70
2022/09/25 06:21:24;;;;;;;12.45;6.38;;;;;;;-140.66;100.00;55571.53;5054531;28;20056;-72
2022/09/25 06:24:10;;;;;;;8.23;6.70;;;;;;;-140.66;100.00;55571.53;5055726;28;20032;-70
2022/09/25 06:26:56;;;;;;;8.57;6.18;;;;;;;-140.66;100.00;55571.53;5053850;28;20024;-71
2022/09/25 06:29:42;;;;;;;8.10;6.10;;;;;;;-140.66;100.00;55571.53;5054247;28;20036;-69
2022/09/25 06:32:27;;;;;;;8.77;6.75;;;;;;;-140.66;100.00;55571.53;5054741;28;20024;-70
2022/09/25 06:35:14;;;;;;;9.23;6.05;;;;;;;-140.66;100.00;55571.53;5054339;28;20032;-70
2022/09/25 06:38:00;;;;;;;7.53;6.40;;;;;;;-140.66;100.00;55571.53;5055536;28;20021;-71
2022/09/25 06:40:46;;;;;;;7.03;6.00;;;;;;;-140.66;100.00;55571.53;5040139;28;20041;-71
2022/09/25 06:43:32;;;;;;;8.05;6.15;;;;;;;-140.66;100.00;55571.53;5054358;28;20029;-70
2022/09/25 06:46:21;;;;;;;9.20;6.40;;;;;;;-140.66;100.00;55571.53;5055300;28;20021;-70
2022/09/25 06:49:07;;;;;;;9.63;6.43;;;;;;;-140.66;100.00;55571.53;5056069;28;20051;-69
2022/09/25 06:51:53;;;;;;;9.88;7.25;;;;;;;-140.66;100.00;55571.53;5060487;28;20048;-69
2022/09/25 06:54:39;;;;;;;14.10;7.88;;;;;;;-140.66;100.00;55571.53;5060327;28;20036;-69
2022/09/25 06:57:25;;;;;;;9.60;6.85;;;;;;;-140.66;100.00;55571.53;5046917;28;20032;-69
2022/09/25 07:00:11;;;;;;;10.82;7.55;;;;;;;-140.66;100.00;55571.53;5060575;28;20025;-71
2022/09/25 07:06:04;;;;;;;12.32;7.20;;;;;;;-140.66;100.00;55571.53;5058277;28;20025;-70
2022/09/25 07:08:50;;;;;;;11.93;7.63;;;;;;;-140.66;100.00;55571.53;5039758;28;20033;-70
2022/09/25 07:11:36;;;;;;;14.43;7.88;;;;;;;-140.66;100.00;55571.53;5054630;28;20055;-71
2022/09/25 07:14:22;;;;;;;10.93;7.40;;;;;;;-140.66;100.00;55571.53;5053338;28;20021;-71
2022/09/25 07:17:08;;;;;;;12.60;7.18;;;;;;;-140.66;100.00;55571.53;5055220;28;20028;-70
2022/09/25 07:19:54;;;;;;;10.23;7.32;;;;;;;-140.66;100.00;55571.53;5039776;28;20425;-69
2022/09/25 07:22:40;;;;;;;14.27;7.97;;;;;;;-140.66;100.00;55571.53;5053559;28;20033;-69
2022/09/25 07:25:26;;;;;;;11.40;7.25;;;;;;;-140.66;100.00;55571.53;5039441;28;20048;-70
2022/09/25 07:28:13;;;;;;;9.60;7.65;;;;;;;-140.66;100.00;55571.53;5053661;28;20587;-70
2022/09/25 07:31:18;;;;;;;9.02;7.60;;;;;;;-140.66;100.00;55571.53;5055220;28;20342;-70
2022/09/25 07:34:11;;;;;;;11.43;8.02;;;;;;;-140.66;100.00;55571.53;5054222;28;20029;-72
2022/09/25 07:36:57;;;;;;;10.73;7.97;;;;;;;-140.66;100.00;55571.53;5053781;28;20032;-70
2022/09/25 07:39:43;;;;;;;10.43;7.72;;;;;;;-140.66;100.00;55571.53;5053442;28;20021;-70
2022/09/25 07:42:29;;;;;;;9.35;6.55;;;;;;;-140.66;100.00;55571.53;5039707;28;20029;-70
2022/09/25 07:45:15;;;;;;;10.55;6.68;;;;;;;-140.66;100.00;55571.53;5053706;28;20374;-71
2022/09/25 07:48:02;;;;;;;7.53;5.80;;;;;;;-140.66;100.00;55571.53;5053910;28;20048;-71
2022/09/25 07:50:49;;;;;;;7.28;5.60;;;;;;;-140.66;100.00;55571.53;5053643;28;20036;-70
2022/09/25 07:53:34;;;;;;;8.48;5.80;;;;;;;-140.66;100.00;55571.53;5054817;28;20331;-71
2022/09/25 07:56:20;;;;;;;7.57;5.75;;;;;;;-140.66;100.00;55571.53;5052953;28;20067;-70
2022/09/25 07:59:06;;;;;;;8.40;5.65;;;;;;;-140.66;100.00;55571.53;5054132;28;20029;-70
2022/09/25 08:01:52;;;;;;;10.43;5.47;;;;;;;-140.66;100.00;55571.53;5054303;28;20090;-70
2022/09/25 08:04:37;;;;;;;7.43;4.88;;;;;;;-140.66;100.00;55571.53;5053675;28;20362;-70
2022/09/25 08:07:23;;;;;;;9.27;5.40;;;;;;;-140.66;100.00;55571.53;5054162;28;20016;-70
2022/09/25 08:10:09;;;;;;;8.73;4.95;;;;;;;-140.66;100.00;55571.53;5053262;28;20108;-69
2022/09/25 08:12:55;;;;;;;6.50;4.80;;;;;;;-140.66;100.00;55571.53;5053216;28;20453;-71
2022/09/25 08:15:41;;;;;;;8.65;4.57;;;;;;;-140.66;100.00;55571.53;5052965;28;20434;-71
2022/09/25 08:18:26;;;;;;;8.77;4.95;;;;;;;-140.66;100.00;55571.53;5052948;28;20025;-71
2022/09/25 08:21:15;;;;;;;7.72;4.85;;;;;;;-140.66;100.00;55571.53;5053773;28;20063;-71
2022/09/25 08:24:01;;;;;;;7.95;4.57;;;;;;;-140.66;100.00;55571.53;5058019;28;20032;-71
2022/09/25 08:26:47;;;;;;;5.57;4.18;;;;;;;-140.66;100.00;55571.53;5058380;28;20029;-73
2022/09/25 08:29:33;;;;;;;5.07;4.22;;;;;;;-140.66;100.00;55571.53;5056378;28;20021;-71
2022/09/25 08:32:19;;;;;;;7.20;4.20;;;;;;;-140.66;100.00;55571.53;5057008;28;20062;-70
2022/09/25 08:35:05;;;;;;;8.63;4.20;;;;;;;-140.66;100.00;55571.53;5056290;28;20044;-72
2022/09/25 08:37:51;;;;;;;4.47;3.60;;;;;;;-140.66;100.00;55571.53;5057346;28;20422;-71
2022/09/25 08:40:45;;;;;;;8.27;3.72;;;;;;;-140.66;100.00;55571.53;5056263;28;20025;-72
2022/09/25 08:43:34;;;;;;;8.13;4.28;;;;;;;-140.66;100.00;55571.53;5042079;28;20021;-67
2022/09/25 08:50:10;;;;;;;4.70;3.78;;;;;;;-140.66;100.00;55571.53;5038869;28;20120;-69
2022/09/25 08:53:20;;;;;;;6.13;3.72;;;;;;;-140.66;100.00;55571.53;5042454;28;20032;-70
2022/09/25 08:56:18;;;;;;;4.90;3.63;;;;;;;-140.66;100.00;55571.53;5035689;28;20170;-69
2022/09/25 08:59:22;;;;;;;5.13;3.50;;;;;;;-140.66;100.00;55571.53;5037503;28;20458;-70
2022/09/25 09:02:38;;;;;;;6.10;3.60;;;;;;;-140.66;100.00;55571.53;5036368;28;20033;-70
2022/09/25 09:05:29;;;;;;;6.00;3.28;;;;;;;-140.66;100.00;55571.53;5035650;28;20026;-69
2022/09/25 09:08:18;;;;;;;9.10;3.70;;;;;;;-140.66;100.00;55571.53;5036159;28;20442;-71
2022/09/25 09:11:17;;;;;;;4.78;3.42;;;;;;;-140.66;100.00;55571.53;5036509;28;20029;-70
2022/09/25 09:14:14;;;;;;;3.60;3.15;;;;;;;-140.66;100.00;55571.53;5036149;28;20033;-69
2022/09/25 09:17:17;;;;;;;5.30;2.95;;;;;;;-140.66;100.00;55571.53;5036762;28;20037;-70
2022/09/25 09:20:15;;;;;;;4.07;3.45;;;;;;;-140.66;100.00;55571.53;5035702;28;20040;-70
2022/09/25 09:23:02;;;;;;;4.97;3.08;;;;;;;-140.66;100.00;55571.53;5035900;28;20033;-71
2022/09/25 09:25:58;;;;;;;3.33;3.00;;;;;;;-140.66;100.00;55571.53;5034778;28;20052;-70
2022/09/25 09:29:18;;;;;;;4.13;2.90;;;;;;;-140.66;100.00;55571.53;5036157;28;20017;-70
2022/09/25 09:32:22;;;;;;;6.35;3.30;;;;;;;-140.66;100.00;55571.53;5035307;28;20465;-70
2022/09/25 09:35:27;;;;;;;7.95;3.17;;;;;;;-140.66;100.00;55571.53;5035443;28;20068;-70
2022/09/25 09:38:20;;;;;;;4.68;3.20;;;;;;;-140.66;100.00;55571.53;5036506;28;20413;-71
2022/09/25 09:41:24;;;;;;;3.97;3.30;;;;;;;-140.66;100.00;55571.53;5035638;28;20469;-70
2022/09/25 09:44:57;;;;;;;5.32;3.60;;;;;;;-140.66;100.00;55571.53;5036418;28;20511;-70
2022/09/25 09:48:01;;;;;;;4.03;3.30;;;;;;;-140.66;100.00;55571.53;5026365;28;20041;-70
2022/09/25 09:50:54;;;;;;;4.57;3.38;;;;;;;-140.66;100.00;55571.53;5035347;28;20090;-69
2022/09/25 09:53:49;;;;;;;5.20;4.05;;;;;;;-140.66;100.00;55571.53;5034614;28;20045;-70
2022/09/25 09:56:35;;;;;;;6.35;3.80;;;;;;;-140.66;100.00;55571.53;5052201;28;20055;-71
2022/09/25 09:59:28;;;;;;;5.03;3.78;;;;;;;-140.66;100.00;55571.53;5054813;28;20449;-70
2022/09/25 10:02:35;;;;;;;3.85;3.45;;;;;;;-140.66;100.00;55571.53;5054843;28;20043;-69
2022/09/25 10:05:21;;;;;;;6.88;3.63;;;;;;;-140.66;100.00;55571.53;5055797;28;20373;-70
2022/09/25 10:08:10;;;;;;;7.88;4.07;;;;;;;-140.66;100.00;55571.53;5054716;28;20029;-69
2022/09/25 10:10:57;;;;;;;5.80;3.70;;;;;;;-140.66;100.00;55571.53;5054747;28;20085;-71
2022/09/25 10:13:44;;;;;;;4.78;3.60;;;;;;;-140.66;100.00;55571.53;5039887;28;20029;-71
2022/09/25 10:16:30;;;;;;;5.45;3.58;;;;;;;-140.66;100.00;55571.53;5054220;28;20107;-70
2022/09/25 10:19:18;;;;;;;4.85;3.40;;;;;;;-140.66;100.00;55571.53;5055943;28;20025;-70
2022/09/25 10:22:12;;;;;;;6.43;3.60;;;;;;;-140.66;100.00;55571.53;5054386;28;20024;-70
2022/09/25 10:25:04;;;;;;;3.78;3.25;;;;;;;-140.66;100.00;55571.53;5055379;28;20035;-70
2022/09/25 10:27:50;;;;;;;3.35;2.88;;;;;;;-140.66;100.00;55571.53;5039832;28;20047;-71
2022/09/25 10:30:45;;;;;;;3.83;3.40;;;;;;;-140.66;100.00;55571.53;5054204;28;20029;-69
2022/09/25 10:33:31;;;;;;;6.53;3.40;;;;;;;-140.66;100.00;55571.53;5055710;28;20113;-72
2022/09/25 10:36:30;;;;;;;5.13;3.58;;;;;;;-140.66;100.00;55571.53;5055078;28;20047;-71
2022/09/25 10:39:29;;;;;;;5.80;3.00;;;;;;;-140.66;100.00;55571.53;5039521;28;20111;-70
2022/09/25 10:42:38;;;;;;;5.30;3.30;;;;;;;-140.66;100.00;55571.53;5054275;28;20365;-71
2022/09/25 10:45:30;;;;;;;4.78;2.80;;;;;;;-140.66;100.00;55571.53;5053468;28;20065;-70
2022/09/25 10:51:35;;;;;;;3.50;3.00;;;;;;;-140.66;100.00;55571.53;5054639;28;20071;-70
2022/09/25 10:54:20;;;;;;;4.60;3.60;;;;;;;-140.66;100.00;55571.53;5054262;28;20036;-70
2022/09/25 10:57:33;;;;;;;6.38;3.88;;;;;;;-140.66;100.00;55571.53;5053924;28;20128;-69
2022/09/25 11:00:22;;;;;;;3.80;2.90;;;;;;;-140.66;100.00;55571.53;5054880;28;20125;-70
2022/09/25 11:03:20;;;;;;;4.95;3.20;;;;;;;-140.66;100.00;55571.53;5053843;28;20079;-70
2022/09/25 11:06:31;;;;;;;4.45;3.00;;;;;;;-140.66;100.00;55571.53;5053960;28;20025;-69
2022/09/25 11:09:23;;;;;;;5.07;3.30;;;;;;;-140.66;100.00;55571.53;5054924;28;20017;-72
2022/09/25 11:12:22;;;;;;;4.20;3.05;;;;;;;-140.66;100.00;55571.53;5039183;28;20469;-71
2022/09/25 11:15:17;;;;;;;5.72;3.20;;;;;;;-140.66;100.00;55571.53;5053920;28;20519;-72
2022/09/25 11:18:05;;;;;;;4.07;3.20;;;;;;;-140.66;100.00;55571.53;5039391;28;20025;-73
2022/09/25 11:21:01;;;;;;;3.22;2.80;;;;;;;-140.66;100.00;55571.53;5039715;28;20383;-71
2022/09/25 11:24:01;;;;;;;3.45;2.90;;;;;;;-140.66;100.00;55571.53;5053850;28;20350;-74
2022/09/25 11:27:04;;;;;;;5.85;3.10;;;;;;;-140.66;100.00;55571.53;5040117;28;20051;-74
2022/09/25 11:30:09;;;;;;;3.80;3.40;;;;;;;-140.66;100.00;55571.53;5053041;28;20037;-72
2022/09/25 11:33:09;;;;;;;5.32;2.80;;;;;;;-140.66;100.00;55571.53;5039753;28;20039;-72
2022/09/25 11:36:10;;;;;;;3.45;3.03;;;;;;;-140.66;100.00;55571.53;5040667;28;20071;-72
2022/09/25 11:42:15;;;;;;;4.60;3.83;;;;;;;-140.66;100.00;55571.53;5053585;28;20392;-73
2022/09/25 11:45:07;;;;;;;4.30;3.20;;;;;;;-140.66;100.00;55571.53;5040531;28;20059;-73
2022/09/25 11:48:31;;;;;;;3.83;3.08;;;;;;;-140.66;100.00;55571.53;5053688;28;20352;-73
2022/09/25 11:51:45;;;;;;;3.40;3.10;;;;;;;-140.66;100.00;55571.53;5053361;28;20114;-73
2022/09/25 11:55:08;;;;;;;3.40;3.10;;;;;;;-140.66;100.00;55571.53;5054534;28;20029;-74
2022/09/25 11:58:07;;;;;;;3.78;3.03;;;;;;;-140.66;100.00;55571.53;5057139;28;20028;-73
2022/09/25 12:01:11;;;;;;;3.40;3.10;;;;;;;-140.66;100.00;55571.53;5056798;28;20025;-73
2022/09/25 12:04:12;;;;;;;4.15;2.92;;;;;;;-140.66;100.00;55571.53;5057301;28;20032;-72
2022/09/25 12:07:13;;;;;;;5.47;2.92;;;;;;;-140.66;100.00;55571.53;5056880;28;20082;-73
2022/09/25 12:10:14;;;;;;;4.20;3.00;;;;;;;-140.66;100.00;55571.53;5057488;28;20109;-74
2022/09/25 12:13:13;;;;;;;7.50;3.38;;;;;;;-140.66;100.00;55571.53;5057259;28;20357;-73
2022/09/25 12:16:01;;;;;;;3.78;3.10;;;;;;;-140.66;100.00;55571.53;5041888;28;20033;-74
2022/09/25 12:19:08;;;;;;;6.20;3.40;;;;;;;-140.66;100.00;55571.53;5056626;28;20049;-74
2022/09/25 12:22:22;;;;;;;5.40;3.13;;;;;;;-140.66;100.00;55571.53;5058033;28;20048;-74
2022/09/25 12:25:30;;;;;;;3.92;3.10;;;;;;;-140.66;100.00;55571.53;5061412;28;20472;-73
2022/09/25 12:28:28;;;;;;;6.68;3.13;;;;;;;-140.66;100.00;55571.53;5057734;28;20462;-74
2022/09/25 12:31:21;;;;;;;4.50;3.28;;;;;;;-140.66;100.00;55571.53;5059022;28;20020;-74
2022/09/25 12:34:49;;;;;;;3.78;3.05;;;;;;;-140.66;100.00;55571.53;5042752;28;20029;-74
2022/09/25 12:37:45;;;;;;;5.35;3.17;;;;;;;-140.66;100.00;55571.53;5056583;28;20098;-72
2022/09/25 12:41:06;;;;;;;4.60;3.05;;;;;;;-140.66;100.00;55571.53;5056735;28;20025;-74
2022/09/25 12:43:59;;;;;;;5.55;3.20;;;;;;;-140.66;100.00;55571.53;5056754;28;20024;-72
2022/09/25 12:47:00;;;;;;;6.10;2.97;;;;;;;-140.66;100.00;55571.53;5057831;28;20029;-73
2022/09/25 12:49:58;;;;;;;4.88;3.10;;;;;;;-140.66;100.00;55571.53;5042188;28;20021;-73
2022/09/25 12:53:19;;;;;;;4.55;3.50;;;;;;;-140.66;100.00;55571.53;5057708;28;20021;-73
2022/09/25 12:56:13;;;;;;;3.45;3.15;;;;;;;-140.66;100.00;55571.53;5056742;28;20060;-73
2022/09/25 12:59:10;;;;;;;7.15;3.00;;;;;;;-140.66;100.00;55571.53;5056288;28;20495;-75
2022/09/25 13:02:17;;;;;;;3.85;3.03;;;;;;;-140.66;100.00;55571.53;5042413;28;20075;-73
2022/09/25 13:05:22;;;;;;;3.58;3.10;;;;;;;-140.66;100.00;55571.53;5041892;28;20024;-73
2022/09/25 13:08:33;;;;;;;4.55;2.95;;;;;;;-140.66;100.00;55571.53;5056686;28;20037;-74
2022/09/25 13:11:51;;;;;;;3.70;2.90;;;;;;;-140.66;100.00;55571.53;5055332;28;20036;-74
2022/09/25 13:15:10;;;;;;;4.18;3.08;;;;;;;-140.66;100.00;55571.53;5052658;28;20075;-73
2022/09/25 13:17:57;;;;;;;3.60;2.90;;;;;;;-140.66;100.00;55571.53;5055585;28;20083;-74
2022/09/25 13:20:49;;;;;;;5.47;2.97;;;;;;;-140.66;100.00;55571.53;5042392;28;20025;-73